This is the latest recevied weather packets stored in our database for station/object K7CTM. If no packets are shown the sender has not sent any weather packets the latest 10 day(s).
| Time | Temp. | Humidity | Pressure | Rain* | Wind** | Luminosity | Snow |
|---|---|---|---|---|---|---|---|
| 1778016959 | 7.78° C | 35% | 1026.1 hPa | 0 mm | - | 143 W/m² | - |
| 1778016656 | 7.78° C | 33% | 1026.1 hPa | 0 mm | - | 157 W/m² | - |
| 1778016352 | 8.33° C | 35% | 1026 hPa | 0 mm | - | 144 W/m² | - |
| 1778016050 | 8.33° C | 35% | 1026.2 hPa | 0 mm | - | 173 W/m² | - |
| 1778015747 | 8.33° C | 34% | 1025.8 hPa | 0 mm | - | 244 W/m² | - |
| 1778015444 | 7.78° C | 33% | 1026.1 hPa | 0 mm | - | 214 W/m² | - |
| 1778015140 | 8.33° C | 34% | 1026.2 hPa | 0 mm | - | 249 W/m² | - |
| 1778014838 | 7.78° C | 36% | 1026.1 hPa | 0 mm | - | 247 W/m² | - |
| 1778014535 | 7.78° C | 35% | 1026.2 hPa | 0 mm | - | 151 W/m² | - |
| 1778014232 | 7.78° C | 35% | 1026 hPa | 0 mm | - | 133 W/m² | - |
| 1778013929 | 7.78° C | 36% | 1026.3 hPa | 0 mm | - | 176 W/m² | - |
| 1778013626 | 7.78° C | 37% | 1026.2 hPa | 0 mm | - | 152 W/m² | - |
| 1778013323 | 7.78° C | 36% | 1026.1 hPa | 0 mm | - | 179 W/m² | - |
| 1778013020 | 7.78° C | 37% | 1026.1 hPa | 0 mm | - | 219 W/m² | - |
| 1778012716 | 7.22° C | 41% | 1026.1 hPa | 0 mm | - | 217 W/m² | - |
| 1778012412 | 6.11° C | 57% | 1026.4 hPa | 0 mm | - | 251 W/m² | - |
| 1778012109 | 6.11° C | 58% | 1026.5 hPa | 0 mm | - | 270 W/m² | - |
| 1778011807 | 6.11° C | 58% | 1026.6 hPa | 0 mm | - | 335 W/m² | - |
| 1778011505 | 6.67° C | 55% | 1026.6 hPa | 0 mm | - | 214 W/m² | - |
| 1778011200 | 7.22° C | 38% | 1026.6 hPa | 0 mm | - | 178 W/m² | - |
| 1778010897 | 7.22° C | 38% | 1026.3 hPa | 0 mm | - | 147 W/m² | - |
| 1778010595 | 7.78° C | 37% | 1026.4 hPa | 0 mm | - | 163 W/m² | - |
| 1778010292 | 7.78° C | 36% | 1026.4 hPa | 0 mm | - | 181 W/m² | - |
| 1778009992 | 7.78° C | 37% | 1026.3 hPa | 0 mm | - | 215 W/m² | - |
| 1778009690 | 7.78° C | 39% | 1026.4 hPa | 0 mm | - | 205 W/m² | - |
* Rain latest hour (hover to see other rain measurements)
** Current wind speed in m/s (hover to see current wind gust speed)